Castle Douglas, United Kingdom
Current Conditions -  °F | °C
As of 9:20 AM on Monday 20 Oct 2014 (Local Time) from EGPK Reporting Station
Broken Clouds Broken Clouds  
Wind Chill: 54°   Ceiling: 2200
Heat Index: 54°   Visibility: 6mi
Dew Point: 48°   Wind: 16mph
Humidity: 82%   Direction: 230°SW
Pressure: 29.77"   Gusts: NA
Location:  54.94°N, 3.93°W
Report Text: EGPK 200820Z 23014KT 9999 SCT015 BKN022 12/09 Q1008
Loading
Personal Weather Stations






























Interactive Weather Map New forecast layout! Learn more

10-Day Weather Forecast

Advertisements
Track Severe Weather on mobile